Time;durP1;ratioP1;P1;durP2;ratioP2;P2;SDS_P1;SDS_P2;PMS_P1;PMS_P2;Temp;Humidity;BMP_temperature;BMP_pressure;BME280_temperature;BME280_humidity;BME280_pressure;Samples;Min_cycle;Max_cycle;Signal;HPM_P1;HPM_P2
2021/06/13 00:02:00;;;;;;;63.65;5.60;;;;;;;15.73;82.38;100183.40;1742600;82;21953;-38
2021/06/13 00:04:26;;;;;;;48.80;4.42;;;;;;;15.76;82.08;100180.17;1732613;82;21441;-38
2021/06/13 00:06:54;;;;;;;50.40;4.90;;;;;;;15.80;81.97;100178.28;1742514;82;20966;-38
2021/06/13 00:09:21;;;;;;;33.88;4.03;;;;;;;15.83;81.93;100173.40;1732637;82;20999;-38
2021/06/13 00:11:49;;;;;;;14.73;3.37;;;;;;;15.88;81.93;100172.73;1742550;82;20967;-38
2021/06/13 00:14:17;;;;;;;29.55;4.83;;;;;;;15.92;82.03;100162.13;1732632;82;21543;-38
2021/06/13 00:16:44;;;;;;;28.02;3.72;;;;;;;15.98;82.05;100160.97;1742410;81;21018;-38
2021/06/13 00:19:11;;;;;;;18.10;3.27;;;;;;;16.00;82.04;100163.05;1732576;82;21033;-39
2021/06/13 00:21:38;;;;;;;29.50;3.75;;;;;;;16.01;82.09;100162.13;1742566;82;21054;-38
2021/06/13 00:24:06;;;;;;;30.02;3.77;;;;;;;16.00;82.20;100157.83;1732561;81;21547;-37
2021/06/13 00:26:33;;;;;;;42.90;3.87;;;;;;;16.00;82.29;100163.05;1742472;82;22215;-38
2021/06/13 00:29:00;;;;;;;26.55;2.70;;;;;;;15.98;82.42;100151.00;1732422;82;20951;-38
2021/06/13 00:31:27;;;;;;;21.45;3.17;;;;;;;15.95;82.45;100146.76;1742526;81;20978;-38
2021/06/13 00:33:53;;;;;;;20.08;3.40;;;;;;;15.91;82.54;100150.44;1732733;82;21573;-38
2021/06/13 00:36:21;;;;;;;33.48;3.30;;;;;;;15.85;82.79;100148.91;1742634;82;21407;-38
2021/06/13 00:38:48;;;;;;;20.20;3.55;;;;;;;15.82;83.06;100150.83;1732880;82;21121;-38
2021/06/13 00:41:17;;;;;;;27.98;4.05;;;;;;;15.75;83.26;100145.03;1742204;81;20979;-38
2021/06/13 00:43:44;;;;;;;31.12;4.12;;;;;;;15.71;83.44;100148.23;1736901;81;21472;-38
2021/06/13 00:46:11;;;;;;;25.02;3.77;;;;;;;15.66;83.85;100147.16;1736952;82;20962;-38
2021/06/13 00:48:38;;;;;;;27.73;4.40;;;;;;;15.61;84.19;100140.44;1737091;82;20998;-38
2021/06/13 00:51:05;;;;;;;24.70;4.00;;;;;;;15.56;84.84;100142.41;1737021;81;21094;-38
2021/06/13 00:53:32;;;;;;;32.55;4.83;;;;;;;15.51;85.34;100139.52;1736930;82;21532;-38
2021/06/13 00:57:42;;;;;;;41.13;4.78;;;;;;;15.56;86.35;100133.28;1797747;79;22583;-38
2021/06/13 01:00:10;;;;;;;43.63;4.85;;;;;;;15.51;86.59;100134.30;1749152;81;20960;-38
2021/06/13 01:02:37;;;;;;;62.35;5.62;;;;;;;15.54;86.99;100136.41;1749412;81;21067;-38
2021/06/13 01:05:06;;;;;;;34.45;4.97;;;;;;;15.58;87.25;100137.97;1749045;82;21047;-38
2021/06/13 01:07:53;;;;;;;48.28;5.20;;;;;;;15.60;87.33;100129.14;1749507;82;20944;-38
2021/06/13 01:10:34;;;;;;;43.23;5.62;;;;;;;15.59;87.41;100126.62;1748744;80;21490;-39
2021/06/13 01:13:15;;;;;;;42.90;4.97;;;;;;;15.57;87.71;100118.02;1749493;82;20940;-38
2021/06/13 01:16:05;;;;;;;49.73;5.20;;;;;;;15.54;87.88;100115.55;1749116;82;21089;-38
2021/06/13 01:18:37;;;;;;;67.80;6.85;;;;;;;15.51;88.16;100109.52;1748916;81;20928;-39
2021/06/13 01:21:11;;;;;;;58.68;7.22;;;;;;;15.48;88.26;100114.05;1749042;82;20987;-38
2021/06/13 01:23:55;;;;;;;59.45;7.58;;;;;;;15.44;88.47;100109.41;1749111;82;20924;-39
2021/06/13 01:26:48;;;;;;;50.63;6.45;;;;;;;15.41;88.68;100105.64;1749104;81;21000;-38
2021/06/13 01:29:34;;;;;;;36.75;4.78;;;;;;;15.37;88.78;100106.70;1748869;82;22059;-38
2021/06/13 01:32:10;;;;;;;35.92;5.10;;;;;;;15.29;89.23;100102.29;1749023;80;20924;-39
2021/06/13 01:34:42;;;;;;;45.83;6.12;;;;;;;15.21;90.17;100089.11;1749299;81;21391;-39
2021/06/13 01:37:16;;;;;;;41.77;6.35;;;;;;;15.21;90.17;100089.11;1748427;80;21015;-38
2021/06/13 01:39:43;;;;;;;45.67;5.58;;;;;;;15.20;90.41;100092.63;1749175;82;20972;-39
2021/06/13 01:42:12;;;;;;;46.18;5.90;;;;;;;15.17;90.61;100091.46;1720017;82;21057;-39
2021/06/13 01:44:41;;;;;;;27.50;5.40;;;;;;;15.16;91.08;100094.98;1719898;82;21525;-38
2021/06/13 01:47:09;;;;;;;52.08;5.87;;;;;;;15.17;91.53;100090.16;1749068;82;20940;-38
2021/06/13 01:49:39;;;;;;;34.63;5.53;;;;;;;15.19;91.69;100087.50;1749201;82;21442;-38
2021/06/13 01:52:07;;;;;;;33.13;4.58;;;;;;;15.20;91.71;100082.20;1749113;82;20928;-38
2021/06/13 01:54:35;;;;;;;38.17;4.67;;;;;;;15.20;91.57;100082.67;1749392;82;21140;-39
2021/06/13 01:57:04;;;;;;;32.80;4.78;;;;;;;15.20;91.76;100088.72;1749386;81;21045;-38
2021/06/13 01:59:33;;;;;;;21.52;4.37;;;;;;;15.21;91.98;100077.37;1749552;82;21462;-38
2021/06/13 02:02:04;;;;;;;20.65;4.80;;;;;;;15.27;92.00;100081.92;1749715;82;20976;-38
2021/06/13 02:04:32;;;;;;;50.55;4.97;;;;;;;15.30;91.99;100081.34;1749964;82;20926;-38
2021/06/13 02:07:01;;;;;;;76.50;7.05;;;;;;;15.37;92.03;100075.41;1748704;82;22629;-38
2021/06/13 02:09:29;;;;;;;32.95;5.37;;;;;;;15.41;91.94;100074.34;1749274;82;21011;-38
2021/06/13 02:12:01;;;;;;;37.58;4.83;;;;;;;15.47;91.89;100068.02;1749550;82;21054;-39
2021/06/13 02:14:30;;;;;;;29.82;5.03;;;;;;;15.50;91.77;100067.87;1721996;82;20948;-38
2021/06/13 02:17:00;;;;;;;14.45;4.85;;;;;;;15.52;91.62;100069.48;1749240;80;21019;-39
2021/06/13 02:19:29;;;;;;;31.20;4.50;;;;;;;15.54;91.61;100075.12;1749489;82;21007;-38
2021/06/13 02:21:58;;;;;;;21.90;3.77;;;;;;;15.54;91.67;100067.30;1748576;82;20993;-38
2021/06/13 02:24:32;;;;;;;28.55;4.40;;;;;;;15.54;91.66;100065.98;1749348;82;20959;-39
2021/06/13 02:27:00;;;;;;;24.98;4.15;;;;;;;15.54;91.64;100068.13;1749372;82;20979;-38
2021/06/13 02:29:28;;;;;;;58.48;5.05;;;;;;;15.55;91.68;100068.51;1749193;82;21514;-39
2021/06/13 02:31:55;;;;;;;22.00;3.87;;;;;;;15.57;91.53;100065.84;1749405;82;21143;-38
2021/06/13 02:34:25;;;;;;;21.33;4.40;;;;;;;15.55;91.46;100062.47;1749327;82;20940;-39
2021/06/13 02:36:53;;;;;;;25.70;4.20;;;;;;;15.54;91.42;100064.69;1749191;82;20989;-38
2021/06/13 02:39:21;;;;;;;25.97;3.90;;;;;;;15.49;91.37;100068.32;1749596;82;21042;-38
2021/06/13 02:41:49;;;;;;;14.18;3.58;;;;;;;15.46;91.36;100061.94;1749275;82;20972;-38
2021/06/13 02:44:15;;;;;;;17.65;4.20;;;;;;;15.42;91.44;100069.52;1749404;82;21895;-38
2021/06/13 02:46:42;;;;;;;7.45;2.87;;;;;;;15.40;91.65;100072.66;1721672;82;20933;-38
2021/06/13 02:49:10;;;;;;;5.85;3.35;;;;;;;15.41;91.85;100076.09;1749411;82;20909;-38
2021/06/13 02:51:42;;;;;;;8.98;2.75;;;;;;;15.42;92.01;100070.00;1749347;82;20944;-38
2021/06/13 02:54:10;;;;;;;10.60;3.27;;;;;;;15.44;92.20;100061.17;1749301;82;21043;-39
2021/06/13 02:56:45;;;;;;;9.95;3.45;;;;;;;15.48;92.38;100070.54;1745163;81;21210;-39
2021/06/13 02:59:31;;;;;;;8.80;3.17;;;;;;;15.54;92.48;100065.98;1735359;82;21316;-39
2021/06/13 03:01:58;;;;;;;90.87;10.70;;;;;;;15.60;92.61;100067.84;1735584;82;20984;-39
2021/06/13 03:04:24;;;;;;;75.92;8.05;;;;;;;15.69;92.75;100066.57;1735339;82;20898;-39
2021/06/13 03:06:54;;;;;;;51.85;7.15;;;;;;;15.79;92.72;100061.34;1735364;82;20917;-39
2021/06/13 03:09:26;;;;;;;51.70;6.30;;;;;;;15.93;92.58;100061.16;1714458;82;21092;-39
2021/06/13 03:11:54;;;;;;;71.00;6.53;;;;;;;16.05;92.30;100063.21;1735571;81;20984;-38
2021/06/13 03:14:23;;;;;;;33.50;5.12;;;;;;;16.19;91.99;100060.38;1738952;82;21037;-38
2021/06/13 03:16:49;;;;;;;28.75;4.55;;;;;;;16.31;91.73;100059.80;1735487;82;20996;-38
2021/06/13 03:19:17;;;;;;;59.53;4.83;;;;;;;16.43;91.40;100053.58;1735287;82;20953;-38
2021/06/13 03:21:46;;;;;;;25.85;4.55;;;;;;;16.56;91.03;100057.29;1735394;82;21139;-37
2021/06/13 03:24:14;;;;;;;28.32;4.55;;;;;;;16.68;90.26;100059.75;1735226;82;20972;-39
2021/06/13 03:26:42;;;;;;;57.67;4.45;;;;;;;16.78;89.29;100060.10;1714969;82;20972;-39
2021/06/13 03:29:09;;;;;;;42.60;4.45;;;;;;;16.89;88.78;100059.56;1735265;82;20980;-39
2021/06/13 03:31:37;;;;;;;21.65;3.98;;;;;;;16.99;88.14;100054.73;1708187;82;20956;-39
2021/06/13 03:34:04;;;;;;;17.10;3.22;;;;;;;17.08;87.48;100059.51;1714336;82;21113;-38
2021/06/13 03:36:32;;;;;;;20.70;3.17;;;;;;;17.20;87.05;100061.47;1735248;82;20933;-39
2021/06/13 03:38:58;;;;;;;33.98;3.60;;;;;;;17.34;86.35;100064.66;1735196;81;20945;-38
2021/06/13 03:41:25;;;;;;;54.55;4.37;;;;;;;17.53;85.96;100063.69;1738934;82;21649;-38
2021/06/13 03:43:55;;;;;;;35.48;4.40;;;;;;;17.75;85.50;100059.42;1735430;82;21463;-38
2021/06/13 03:46:22;;;;;;;35.68;3.87;;;;;;;17.99;84.62;100057.69;1735220;82;21159;-39
2021/06/13 03:48:52;;;;;;;11.12;3.17;;;;;;;18.23;83.31;100049.41;1735344;82;20965;-38
2021/06/13 03:51:19;;;;;;;39.40;3.80;;;;;;;18.48;82.14;100062.41;1735368;82;21454;-38
2021/06/13 03:53:54;;;;;;;45.55;4.37;;;;;;;18.72;80.98;100060.61;1735347;82;21008;-39
2021/06/13 03:56:19;;;;;;;75.05;5.45;;;;;;;18.87;80.01;100058.40;1735222;82;20933;-39
2021/06/13 03:58:46;;;;;;;30.00;3.80;;;;;;;18.99;79.24;100063.86;1749236;82;21125;-39
2021/06/13 04:01:15;;;;;;;17.10;3.25;;;;;;;19.06;78.91;100066.03;1722021;82;21205;-38
2021/06/13 04:03:42;;;;;;;27.70;3.42;;;;;;;19.17;78.52;100063.21;1748550;82;21481;-38
2021/06/13 04:06:09;;;;;;;20.25;3.83;;;;;;;19.24;78.06;100059.30;1714056;82;20940;-39
2021/06/13 04:08:37;;;;;;;18.92;3.95;;;;;;;19.38;77.67;100065.02;1749397;82;20936;-39
2021/06/13 04:11:04;;;;;;;16.07;3.75;;;;;;;19.55;76.80;100067.89;1749295;82;21136;-39
2021/06/13 04:13:32;;;;;;;6.72;2.87;;;;;;;19.69;75.84;100064.41;1738634;82;20925;-39
2021/06/13 04:16:02;;;;;;;6.17;3.17;;;;;;;19.90;74.99;100063.98;1749212;82;20929;-39
2021/06/13 04:18:29;;;;;;;8.43;2.45;;;;;;;20.09;73.82;100064.98;1749008;82;20984;-39
2021/06/13 04:20:56;;;;;;;6.67;2.90;;;;;;;20.25;73.13;100067.45;1749284;82;21030;-39
2021/06/13 04:23:22;;;;;;;12.25;3.05;;;;;;;20.42;72.49;100063.71;1749280;82;21106;-39
2021/06/13 04:25:48;;;;;;;9.78;2.52;;;;;;;20.61;71.90;100059.41;1749217;82;20944;-39
2021/06/13 04:28:15;;;;;;;15.15;3.22;;;;;;;20.82;71.65;100065.48;1749501;82;21396;-39
2021/06/13 04:31:03;;;;;;;8.78;3.00;;;;;;;21.01;70.33;100069.05;1697906;82;20944;-39
2021/06/13 04:33:30;;;;;;;17.35;3.12;;;;;;;21.25;70.27;100063.03;1749405;82;22204;-39
2021/06/13 04:35:57;;;;;;;13.98;3.15;;;;;;;21.54;68.45;100064.09;1749169;81;21132;-39
2021/06/13 04:38:23;;;;;;;15.45;3.10;;;;;;;21.66;67.95;100063.72;1749146;82;20936;-38
2021/06/13 04:40:50;;;;;;;9.18;2.90;;;;;;;21.86;67.79;100060.97;1749517;82;20932;-38
2021/06/13 04:43:16;;;;;;;6.47;2.70;;;;;;;22.06;66.76;100064.77;1749282;82;20956;-38
2021/06/13 04:45:44;;;;;;;12.55;2.65;;;;;;;22.24;66.45;100060.43;1749191;82;20979;-38
2021/06/13 04:48:10;;;;;;;4.83;2.37;;;;;;;22.62;66.57;100064.67;1749214;82;21142;-38
2021/06/13 04:50:40;;;;;;;2.62;2.42;;;;;;;22.93;64.46;100058.84;1749235;82;20976;-38
2021/06/13 04:53:56;;;;;;;5.45;2.30;;;;;;;23.12;63.63;100063.55;1749295;82;20944;-39
2021/06/13 04:56:46;;;;;;;5.90;2.50;;;;;;;23.24;63.07;100062.59;1749208;82;21096;-38
2021/06/13 04:59:12;;;;;;;2.62;2.47;;;;;;;23.48;62.69;100064.28;1737750;82;21015;-38
2021/06/13 05:01:41;;;;;;;2.70;2.50;;;;;;;23.67;60.84;100050.94;1749114;82;21132;-38
2021/06/13 05:04:08;;;;;;;9.20;2.80;;;;;;;23.83;60.37;100061.11;1748961;82;21548;-38
2021/06/13 05:06:35;;;;;;;7.08;2.60;;;;;;;24.13;60.93;100054.81;1749242;82;22281;-38
2021/06/13 05:09:02;;;;;;;6.85;2.83;;;;;;;24.31;59.37;100056.41;1749155;82;21526;-39
2021/06/13 05:11:30;;;;;;;8.43;2.42;;;;;;;24.44;58.43;100049.62;1749324;82;21525;-38
2021/06/13 05:13:57;;;;;;;7.05;2.50;;;;;;;24.51;57.41;100052.09;1749234;82;21825;-38
2021/06/13 05:16:24;;;;;;;13.62;2.80;;;;;;;24.63;57.12;100053.72;1749219;82;21530;-39
2021/06/13 05:18:50;;;;;;;7.30;2.47;;;;;;;24.70;56.63;100054.02;1749268;82;21469;-38
2021/06/13 05:21:16;;;;;;;18.40;2.50;;;;;;;24.78;56.60;100053.41;1749172;82;21506;-38
2021/06/13 05:23:43;;;;;;;4.22;2.75;;;;;;;24.83;55.99;100052.52;1749647;82;22062;-38
2021/06/13 05:26:09;;;;;;;2.70;2.50;;;;;;;24.85;55.34;100050.58;1749404;82;21747;-39
2021/06/13 05:28:35;;;;;;;2.47;2.27;;;;;;;24.88;56.55;100052.96;1749531;80;21763;-40
2021/06/13 05:31:02;;;;;;;4.53;2.10;;;;;;;25.10;56.77;100048.47;1749180;82;20928;-40
2021/06/13 05:33:29;;;;;;;3.00;2.20;;;;;;;25.25;56.35;100049.80;1749090;82;20968;-39
2021/06/13 05:35:57;;;;;;;3.60;2.17;;;;;;;25.42;57.48;100046.17;1735521;82;21010;-39
2021/06/13 05:38:24;;;;;;;5.37;2.47;;;;;;;25.70;57.50;100045.55;1729173;82;21147;-40
2021/06/13 05:40:50;;;;;;;2.40;2.20;;;;;;;26.01;57.11;100045.44;1749019;82;20936;-40
2021/06/13 05:43:17;;;;;;;2.50;2.30;;;;;;;26.46;56.08;100044.08;1749248;82;20977;-40
2021/06/13 05:45:43;;;;;;;5.33;2.20;;;;;;;26.86;54.84;100040.37;1749280;82;20984;-40
2021/06/13 05:48:10;;;;;;;2.50;2.30;;;;;;;27.17;54.08;100042.79;1749238;82;21486;-40
2021/06/13 05:50:37;;;;;;;3.45;2.12;;;;;;;27.42;53.32;100044.89;1749417;82;21139;-40
2021/06/13 05:53:04;;;;;;;5.45;2.33;;;;;;;27.58;53.50;100048.26;1749359;82;21040;-40
2021/06/13 05:55:31;;;;;;;17.42;2.55;;;;;;;27.75;51.98;100040.81;1721784;82;20939;-37
2021/06/13 05:57:58;;;;;;;30.10;2.72;;;;;;;27.65;50.12;100045.33;1749155;81;21505;-38
2021/06/13 06:00:29;;;;;;;16.57;2.70;;;;;;;27.57;51.42;100042.60;1749426;82;21387;-38
2021/06/13 06:02:55;;;;;;;8.68;2.75;;;;;;;27.57;51.04;100035.95;1749419;82;21149;-38
2021/06/13 06:05:22;;;;;;;10.35;2.35;;;;;;;27.63;51.65;100043.32;1749340;82;20940;-38
2021/06/13 06:07:53;;;;;;;17.50;3.02;;;;;;;27.88;52.05;100039.59;1749412;82;21003;-38
2021/06/13 06:10:21;;;;;;;10.50;2.10;;;;;;;27.95;49.73;100040.67;1749278;82;20991;-39
2021/06/13 06:12:48;;;;;;;18.57;3.02;;;;;;;27.85;49.94;100041.22;1749341;82;20948;-39
2021/06/13 06:15:17;;;;;;;8.45;2.33;;;;;;;27.76;48.83;100044.28;1749342;82;21134;-39
2021/06/13 06:17:44;;;;;;;13.00;3.12;;;;;;;27.58;49.55;100045.60;1749170;82;21030;-38
2021/06/13 06:20:12;;;;;;;29.40;3.95;;;;;;;27.34;48.19;100041.64;1749257;82;20920;-39
2021/06/13 06:22:39;;;;;;;43.33;4.47;;;;;;;26.99;49.26;100044.53;1749197;82;20909;-39
2021/06/13 06:25:07;;;;;;;23.07;2.90;;;;;;;26.85;50.97;100044.01;1749347;82;20976;-39
2021/06/13 06:27:33;;;;;;;14.40;2.92;;;;;;;26.84;51.08;100039.65;1749608;82;20932;-39
2021/06/13 06:30:00;;;;;;;16.12;2.40;;;;;;;26.93;50.31;100034.00;1749265;82;20968;-39
2021/06/13 06:32:27;;;;;;;9.68;2.95;;;;;;;27.07;50.16;100031.36;1749271;82;21035;-39
2021/06/13 06:34:53;;;;;;;10.15;2.50;;;;;;;27.18;49.69;100028.53;1749372;82;21023;-40
2021/06/13 06:37:20;;;;;;;17.15;2.75;;;;;;;27.16;51.60;100030.50;1749312;82;20889;-39
2021/06/13 06:39:46;;;;;;;11.85;3.00;;;;;;;27.36;50.85;100026.39;1749258;82;21096;-39
2021/06/13 06:42:13;;;;;;;37.90;3.75;;;;;;;27.60;51.07;100022.37;1749457;82;21536;-40
2021/06/13 06:44:39;;;;;;;36.65;3.80;;;;;;;27.85;50.25;100017.30;1749557;82;21470;-39
2021/06/13 06:47:06;;;;;;;13.80;3.12;;;;;;;27.99;49.39;100016.77;1749291;80;22111;-39
2021/06/13 06:49:32;;;;;;;19.57;4.22;;;;;;;28.05;48.80;100013.49;1749374;82;21510;-39
2021/06/13 06:52:00;;;;;;;16.55;2.80;;;;;;;28.02;49.34;100023.11;1749239;82;21048;-40
2021/06/13 06:54:27;;;;;;;13.08;2.65;;;;;;;27.80;47.73;100021.25;1749262;82;20929;-40
2021/06/13 06:56:54;;;;;;;57.90;3.60;;;;;;;27.60;48.35;100017.05;1749212;82;20944;-39
2021/06/13 06:59:20;;;;;;;29.48;4.10;;;;;;;27.50;48.42;100027.23;1749220;81;20893;-40
2021/06/13 07:01:47;;;;;;;32.15;3.80;;;;;;;27.55;48.70;100016.19;1737497;82;20932;-40
2021/06/13 07:04:13;;;;;;;8.15;2.45;;;;;;;27.65;47.59;100018.76;1719324;83;21137;-40
2021/06/13 07:06:40;;;;;;;20.95;2.80;;;;;;;27.63;47.48;100022.91;1719220;83;21018;-40
2021/06/13 07:09:06;;;;;;;7.53;2.50;;;;;;;27.64;46.29;100015.76;1719508;83;20983;-40
2021/06/13 07:11:33;;;;;;;12.03;2.45;;;;;;;27.59;47.33;100018.89;1719351;83;20948;-40
2021/06/13 07:14:00;;;;;;;45.83;3.72;;;;;;;27.61;45.82;100016.06;1719534;83;20932;-40
2021/06/13 07:16:28;;;;;;;26.45;2.47;;;;;;;27.54;46.03;100028.62;1682419;85;20952;-40
2021/06/13 07:18:54;;;;;;;46.02;5.22;;;;;;;27.49;45.74;100028.69;1719492;83;20984;-40
2021/06/13 07:21:20;;;;;;;22.82;2.87;;;;;;;27.42;44.99;100026.30;1719467;83;20980;-39
2021/06/13 07:23:47;;;;;;;21.35;3.00;;;;;;;27.34;45.53;100019.91;1719399;83;20909;-40
2021/06/13 07:26:13;;;;;;;37.42;2.62;;;;;;;27.31;45.48;100019.36;1719511;83;20987;-39
2021/06/13 07:28:40;;;;;;;11.85;2.42;;;;;;;27.24;45.08;100019.97;1719374;83;21148;-39
2021/06/13 07:31:06;;;;;;;13.28;2.72;;;;;;;27.11;44.87;100022.11;1719398;83;20999;-39
2021/06/13 07:33:33;;;;;;;27.70;3.55;;;;;;;26.86;46.80;100026.28;1719316;83;20936;-39
2021/06/13 07:35:59;;;;;;;24.57;2.37;;;;;;;26.82;46.88;100013.27;1720148;82;20948;-41
2021/06/13 07:38:25;;;;;;;45.43;3.12;;;;;;;27.02;46.82;100013.20;1719385;83;20952;-40
2021/06/13 07:40:53;;;;;;;23.22;3.12;;;;;;;27.23;44.52;100006.34;1719339;83;21123;-40
2021/06/13 07:43:20;;;;;;;3.67;1.87;;;;;;;27.37;45.98;100013.45;1719352;83;21490;-41
2021/06/13 07:45:47;;;;;;;18.55;2.65;;;;;;;27.53;43.97;100005.70;1721821;82;21517;-41
2021/06/13 07:48:13;;;;;;;15.03;2.12;;;;;;;27.53;44.13;100016.80;1721499;82;21019;-39
2021/06/13 07:50:41;;;;;;;42.15;3.00;;;;;;;27.49;44.54;100014.08;1737969;82;21301;-39
2021/06/13 07:53:08;;;;;;;30.85;2.60;;;;;;;27.67;45.49;100017.63;1736628;82;21137;-40
2021/06/13 07:55:35;;;;;;;18.55;2.42;;;;;;;27.67;43.17;100009.66;1729574;82;20944;-40
2021/06/13 07:58:02;;;;;;;7.47;2.30;;;;;;;27.47;44.02;100013.39;1723830;82;21016;-40
2021/06/13 08:00:28;;;;;;;31.97;2.52;;;;;;;27.24;45.46;100019.97;1710995;82;20976;-40
2021/06/13 08:02:54;;;;;;;12.63;2.17;;;;;;;27.33;44.73;100010.75;1733015;82;20893;-40
2021/06/13 08:05:28;;;;;;;18.95;2.40;;;;;;;27.45;44.13;100016.22;1735018;82;21486;-40
2021/06/13 08:08:00;;;;;;;18.87;2.55;;;;;;;27.66;44.50;100009.80;1734988;81;20983;-40
2021/06/13 08:10:28;;;;;;;21.90;2.45;;;;;;;27.92;45.20;100009.89;1712365;82;20944;-40
2021/06/13 08:12:55;;;;;;;26.87;2.87;;;;;;;28.16;43.27;100004.95;1708064;82;21554;-40
2021/06/13 08:15:22;;;;;;;24.20;2.70;;;;;;;28.24;42.73;100006.36;1734762;82;21431;-40
2021/06/13 08:17:49;;;;;;;31.62;2.95;;;;;;;28.19;42.68;100004.67;1711700;82;21130;-39
2021/06/13 08:20:16;;;;;;;22.85;2.60;;;;;;;27.99;42.49;99999.48;1722672;82;20929;-39
2021/06/13 08:22:43;;;;;;;14.58;2.75;;;;;;;27.95;43.70;99995.47;1712906;82;20984;-39
2021/06/13 08:25:11;;;;;;;13.60;2.22;;;;;;;27.68;43.95;100000.70;1705671;83;20949;-40
2021/06/13 08:27:38;;;;;;;25.88;2.72;;;;;;;27.40;44.44;99994.55;1705776;84;20996;-39
2021/06/13 08:30:07;;;;;;;24.87;2.60;;;;;;;27.33;45.54;99993.48;1705688;84;21120;-40
2021/06/13 08:32:34;;;;;;;40.15;6.97;;;;;;;27.39;46.05;99990.22;1705862;84;20984;-40
2021/06/13 08:35:00;;;;;;;24.47;3.50;;;;;;;27.33;45.81;99997.47;1705761;84;20988;-40
2021/06/13 08:37:26;;;;;;;25.45;2.27;;;;;;;27.29;46.51;99987.66;1705707;84;20992;-39
2021/06/13 08:39:53;;;;;;;11.28;2.42;;;;;;;27.44;46.29;99983.99;1705896;84;20957;-39
2021/06/13 08:42:21;;;;;;;54.63;5.40;;;;;;;27.68;46.30;99975.95;1705946;82;21112;-40
2021/06/13 08:44:47;;;;;;;17.23;2.10;;;;;;;28.06;45.55;99979.27;1705931;84;20976;-39
2021/06/13 08:47:17;;;;;;;61.77;3.67;;;;;;;28.31;42.06;99968.83;1705851;84;21107;-39
2021/06/13 08:49:45;;;;;;;24.40;3.37;;;;;;;28.38;43.16;99957.08;1706010;84;20948;-40
2021/06/13 08:52:11;;;;;;;28.70;2.67;;;;;;;28.57;43.88;99962.66;1705884;84;21526;-40
2021/06/13 08:54:39;;;;;;;19.77;3.00;;;;;;;28.80;43.05;99960.81;1706031;84;21817;-40
2021/06/13 08:57:07;;;;;;;72.08;4.20;;;;;;;28.91;42.69;99958.37;1705710;84;20957;-40
2021/06/13 08:59:33;;;;;;;27.45;2.70;;;;;;;28.95;42.04;99955.72;1721423;82;20957;-40
2021/06/13 09:02:00;;;;;;;23.45;2.60;;;;;;;29.13;42.34;99952.12;1730371;82;21054;-40
2021/06/13 09:04:27;;;;;;;51.70;5.65;;;;;;;29.28;41.73;99959.80;1747344;82;20937;-40
2021/06/13 09:06:53;;;;;;;9.20;2.70;;;;;;;29.21;41.34;99956.13;1748954;82;21072;-40
2021/06/13 09:09:29;;;;;;;8.65;1.90;;;;;;;29.20;42.18;99947.32;1749087;82;20999;-39
2021/06/13 09:12:02;;;;;;;10.35;2.33;;;;;;;29.19;40.82;99952.31;1749091;81;20928;-40
2021/06/13 09:14:31;;;;;;;32.48;3.30;;;;;;;29.00;40.25;99937.42;1748528;82;20940;-40
2021/06/13 09:16:58;;;;;;;17.15;2.35;;;;;;;28.66;40.77;99936.93;1749328;82;21560;-40
2021/06/13 09:19:24;;;;;;;21.15;2.45;;;;;;;28.65;42.25;99934.75;1721918;82;21897;-40
2021/06/13 09:21:51;;;;;;;7.50;1.82;;;;;;;28.87;42.58;99936.54;1749294;82;21474;-40
2021/06/13 09:24:26;;;;;;;5.17;1.47;;;;;;;29.01;41.65;99935.60;1749348;82;21509;-40
2021/06/13 09:26:54;;;;;;;15.40;2.70;;;;;;;28.89;41.46;99933.22;1749524;82;20975;-40
2021/06/13 09:29:21;;;;;;;7.12;2.02;;;;;;;28.74;41.50;99934.80;1749304;82;20897;-40
2021/06/13 09:32:08;;;;;;;9.13;1.92;;;;;;;28.66;42.40;99928.43;1749374;82;21831;-39
2021/06/13 09:34:34;;;;;;;66.42;4.33;;;;;;;28.92;43.40;99924.91;1749310;82;20947;-40
2021/06/13 09:37:05;;;;;;;22.50;2.33;;;;;;;29.42;40.80;99918.39;1749347;82;21015;-40
2021/06/13 09:39:32;;;;;;;18.77;2.10;;;;;;;29.71;38.98;99921.58;1749259;82;21011;-40
2021/06/13 09:42:10;;;;;;;28.20;2.62;;;;;;;29.95;38.87;99914.91;1722093;82;21019;-41
2021/06/13 09:44:37;;;;;;;45.80;2.92;;;;;;;30.07;37.92;99919.42;1749271;82;21098;-41
2021/06/13 09:47:06;;;;;;;33.50;3.08;;;;;;;29.57;39.80;99919.93;1749204;82;21526;-41
2021/06/13 09:49:46;;;;;;;30.92;3.17;;;;;;;29.15;41.04;99920.31;1749247;82;20976;-40
2021/06/13 09:52:12;;;;;;;15.50;2.55;;;;;;;28.86;40.81;99913.57;1749247;82;20901;-40
2021/06/13 09:54:39;;;;;;;23.10;2.60;;;;;;;28.83;41.40;99903.25;1749383;82;20921;-40
2021/06/13 09:57:08;;;;;;;78.62;4.83;;;;;;;29.03;42.40;99897.66;1749272;82;21142;-40
2021/06/13 09:59:35;;;;;;;35.60;2.67;;;;;;;29.36;41.88;99897.70;1749088;81;21016;-40
2021/06/13 10:02:04;;;;;;;20.92;2.00;;;;;;;29.27;39.97;99908.03;1749377;82;22181;-40
2021/06/13 10:04:37;;;;;;;36.80;2.58;;;;;;;28.39;41.88;99906.34;1749290;82;21340;-41
2021/06/13 10:07:21;;;;;;;19.10;2.27;;;;;;;27.58;43.02;99923.36;1735856;82;20983;-40
2021/06/13 10:09:52;;;;;;;30.97;2.87;;;;;;;26.59;43.94;99925.20;1736475;82;21119;-40
2021/06/13 10:12:20;;;;;;;37.28;3.70;;;;;;;25.95;45.21;99910.34;1726549;82;20955;-39
2021/06/13 10:14:51;;;;;;;31.00;3.02;;;;;;;25.67;45.82;99911.55;1727576;82;21003;-40
2021/06/13 10:17:17;;;;;;;19.12;2.83;;;;;;;25.85;48.58;99904.19;1692466;83;21050;-41
2021/06/13 10:19:47;;;;;;;10.72;3.05;;;;;;;26.34;45.29;99902.31;1709823;82;21545;-40
2021/06/13 10:22:15;;;;;;;16.07;3.50;;;;;;;26.65;46.24;99910.04;1734238;82;21141;-40
2021/06/13 10:24:44;;;;;;;17.10;3.30;;;;;;;27.03;44.54;99909.17;1727863;82;20992;-40
2021/06/13 10:27:14;;;;;;;19.73;2.40;;;;;;;27.46;43.71;99906.30;1729649;82;20961;-40
2021/06/13 10:29:43;;;;;;;29.65;4.35;;;;;;;27.70;43.38;99899.56;1725572;82;20944;-41
2021/06/13 10:32:11;;;;;;;36.30;4.10;;;;;;;27.81;44.13;99899.81;1725350;82;21014;-41
2021/06/13 10:34:38;;;;;;;15.72;3.00;;;;;;;27.94;42.85;99897.56;1734466;82;21134;-41
2021/06/13 10:37:09;;;;;;;21.73;2.92;;;;;;;27.65;42.79;99889.86;1724817;82;20996;-41
2021/06/13 10:39:37;;;;;;;35.35;3.58;;;;;;;27.21;44.01;99900.74;1747428;82;21028;-41
2021/06/13 10:42:06;;;;;;;17.05;2.30;;;;;;;26.88;45.12;99913.64;1743291;82;20964;-41
2021/06/13 10:44:36;;;;;;;33.10;4.45;;;;;;;26.72;44.24;99914.75;1719704;82;21007;-41
2021/06/13 10:47:16;;;;;;;33.15;3.33;;;;;;;26.94;45.28;99908.23;1699777;82;21139;-40
2021/06/13 10:49:41;;;;;;;54.08;4.03;;;;;;;27.04;44.89;99897.08;1721292;82;20944;-41
2021/06/13 10:52:21;;;;;;;46.98;4.37;;;;;;;26.89;45.17;99905.19;1733461;82;20967;-40
2021/06/13 10:54:54;;;;;;;80.05;5.08;;;;;;;26.60;46.34;99911.45;1746728;80;21474;-40
2021/06/13 10:57:27;;;;;;;48.60;3.60;;;;;;;26.23;47.48;99909.13;1729020;82;20944;-40
2021/06/13 10:59:58;;;;;;;33.02;3.12;;;;;;;25.80;47.08;99902.81;1733298;81;21098;-40
2021/06/13 11:02:27;;;;;;;53.50;3.55;;;;;;;25.54;46.91;99916.63;1726963;82;20984;-40
2021/06/13 11:05:02;;;;;;;109.05;6.40;;;;;;;25.27;46.41;99914.63;1728852;82;21016;-40
2021/06/13 11:07:35;;;;;;;;;;;;;;;25.01;47.35;99916.45;1735191;82;21056;-40
2021/06/13 11:10:11;;;;;;;34.30;3.42;;;;;;;24.79;47.58;99910.88;1717543;82;20143;-39
2021/06/13 11:13:08;;;;;;;36.73;3.55;;;;;;;24.58;47.79;99912.23;1723860;82;21794;-39
2021/06/13 11:15:42;;;;;;;82.78;5.85;;;;;;;24.48;46.86;99912.18;1733489;82;21344;-40
2021/06/13 11:18:18;;;;;;;22.48;2.62;;;;;;;24.48;47.76;99916.97;1724330;82;21000;-39
2021/06/13 11:21:16;;;;;;;23.35;3.08;;;;;;;24.61;47.83;99919.89;1723299;82;21016;-41
2021/06/13 11:23:36;;;;;;;37.25;2.60;;;;;;;25.01;48.59;99919.58;1716449;82;21035;-40
2021/06/13 11:26:04;;;;;;;25.25;2.77;;;;;;;25.43;48.31;99911.44;1719945;82;21116;-41
2021/06/13 11:28:42;;;;;;;65.35;4.92;;;;;;;25.87;48.63;99914.16;1724003;82;21428;-40
2021/06/13 11:31:20;;;;;;;66.77;4.28;;;;;;;26.43;47.54;99903.77;1708861;82;21036;-40
2021/06/13 11:34:00;;;;;;;46.23;3.45;;;;;;;27.15;48.65;99900.50;1734976;82;21522;-40